Fort Yates, North Dakota
Current Conditions -  °F | °C
As of 2:15 AM on Monday 22 Dec 2014 (Local Time) from K7L2 Reporting Station
Haze Haze  
Wind Chill: 28°   Ceiling: 100
Heat Index: 28°   Visibility: 0.75mi
Dew Point: 28°   Wind: 0mph
Humidity: 100%   Direction: NA
Pressure: 29.44"   Gusts: NA
Location:  46.09°N, 100.64°W
Report Text: K7L2 220915Z AUTO 00000KT 3/4SM BR OVC001 M02/M02 A2944 RMK AO2
Loading
Personal Weather Stations






























Interactive Weather Map New forecast layout! Learn more

10-Day Weather Forecast

Advertisements
Track Severe Weather on mobile